sensor_id;sensor_type;location;lat;lon;timestamp;pressure;altitude;pressure_sealevel;temperature;humidity
49841;BME280;35738;49.890;5.930;2024-01-15T00:01:58;94718.50;;;-8.80;79.60
49841;BME280;35738;49.890;5.930;2024-01-15T00:04:25;94714.94;;;-8.79;79.45
49841;BME280;35738;49.890;5.930;2024-01-15T00:06:52;94711.59;;;-8.80;79.14
49841;BME280;35738;49.890;5.930;2024-01-15T00:09:18;94707.03;;;-8.77;79.12
49841;BME280;35738;49.890;5.930;2024-01-15T00:11:45;94717.13;;;-8.76;79.41
49841;BME280;35738;49.890;5.930;2024-01-15T00:14:12;94706.44;;;-8.73;79.26
49841;BME280;35738;49.890;5.930;2024-01-15T00:16:40;94704.44;;;-8.71;79.50
49841;BME280;35738;49.890;5.930;2024-01-15T00:19:07;94718.66;;;-8.68;79.57
49841;BME280;35738;49.890;5.930;2024-01-15T00:21:34;94706.00;;;-8.70;79.35
49841;BME280;35738;49.890;5.930;2024-01-15T00:24:00;94706.38;;;-8.66;79.32
49841;BME280;35738;49.890;5.930;2024-01-15T00:26:27;94706.16;;;-8.65;79.53
49841;BME280;35738;49.890;5.930;2024-01-15T00:28:53;94695.69;;;-8.63;79.49
49841;BME280;35738;49.890;5.930;2024-01-15T00:31:20;94687.75;;;-8.62;79.20
49841;BME280;35738;49.890;5.930;2024-01-15T00:33:46;94694.09;;;-8.58;79.51
49841;BME280;35738;49.890;5.930;2024-01-15T00:36:13;94695.06;;;-8.59;79.54
49841;BME280;35738;49.890;5.930;2024-01-15T00:38:40;94686.97;;;-8.56;79.47
49841;BME280;35738;49.890;5.930;2024-01-15T00:41:07;94681.41;;;-8.53;79.74
49841;BME280;35738;49.890;5.930;2024-01-15T00:43:33;94685.53;;;-8.52;78.86
49841;BME280;35738;49.890;5.930;2024-01-15T00:46:02;94680.97;;;-8.50;79.35
49841;BME280;35738;49.890;5.930;2024-01-15T00:48:28;94684.13;;;-8.48;79.37
49841;BME280;35738;49.890;5.930;2024-01-15T00:50:55;94673.41;;;-8.44;79.85
49841;BME280;35738;49.890;5.930;2024-01-15T00:53:21;94691.41;;;-8.44;79.52
49841;BME280;35738;49.890;5.930;2024-01-15T00:55:48;94697.91;;;-8.42;79.50
49841;BME280;35738;49.890;5.930;2024-01-15T00:58:15;94690.00;;;-8.40;79.50
49841;BME280;35738;49.890;5.930;2024-01-15T01:00:42;94690.59;;;-8.38;79.43
49841;BME280;35738;49.890;5.930;2024-01-15T01:03:09;94695.53;;;-8.37;79.95
49841;BME280;35738;49.890;5.930;2024-01-15T01:05:35;94677.75;;;-8.38;79.81
49841;BME280;35738;49.890;5.930;2024-01-15T01:08:02;94685.25;;;-8.37;79.75
49841;BME280;35738;49.890;5.930;2024-01-15T01:10:29;94684.03;;;-8.34;79.37
49841;BME280;35738;49.890;5.930;2024-01-15T01:12:55;94685.03;;;-8.35;79.61
49841;BME280;35738;49.890;5.930;2024-01-15T01:15:22;94688.19;;;-8.33;79.68
49841;BME280;35738;49.890;5.930;2024-01-15T01:17:49;94686.41;;;-8.33;79.35
49841;BME280;35738;49.890;5.930;2024-01-15T01:20:16;94686.59;;;-8.34;79.58
49841;BME280;35738;49.890;5.930;2024-01-15T01:22:44;94687.19;;;-8.32;79.89
49841;BME280;35738;49.890;5.930;2024-01-15T01:25:11;94679.25;;;-8.31;80.10
49841;BME280;35738;49.890;5.930;2024-01-15T01:27:37;94673.34;;;-8.31;79.84
49841;BME280;35738;49.890;5.930;2024-01-15T01:30:05;94653.34;;;-8.29;79.92
49841;BME280;35738;49.890;5.930;2024-01-15T01:32:31;94666.19;;;-8.29;79.23
49841;BME280;35738;49.890;5.930;2024-01-15T01:34:58;94668.34;;;-8.26;80.21
49841;BME280;35738;49.890;5.930;2024-01-15T01:37:25;94643.19;;;-8.24;79.81
49841;BME280;35738;49.890;5.930;2024-01-15T01:39:51;94651.50;;;-8.22;79.82
49841;BME280;35738;49.890;5.930;2024-01-15T01:42:18;94664.94;;;-8.20;79.96
49841;BME280;35738;49.890;5.930;2024-01-15T01:44:44;94642.78;;;-8.21;79.59
49841;BME280;35738;49.890;5.930;2024-01-15T01:47:12;94654.66;;;-8.20;79.86
49841;BME280;35738;49.890;5.930;2024-01-15T01:49:38;94645.53;;;-8.16;80.01
49841;BME280;35738;49.890;5.930;2024-01-15T01:52:05;94658.16;;;-8.14;79.93
49841;BME280;35738;49.890;5.930;2024-01-15T01:54:36;94656.94;;;-8.12;79.82
49841;BME280;35738;49.890;5.930;2024-01-15T01:57:04;94658.53;;;-8.11;79.60
49841;BME280;35738;49.890;5.930;2024-01-15T01:59:33;94660.88;;;-8.09;79.84
49841;BME280;35738;49.890;5.930;2024-01-15T02:02:00;94649.38;;;-8.07;79.92
49841;BME280;35738;49.890;5.930;2024-01-15T02:04:31;94636.31;;;-8.05;79.93
49841;BME280;35738;49.890;5.930;2024-01-15T02:06:59;94636.69;;;-8.02;79.73
49841;BME280;35738;49.890;5.930;2024-01-15T02:09:25;94638.84;;;-7.99;80.24
49841;BME280;35738;49.890;5.930;2024-01-15T02:11:52;94646.91;;;-7.95;79.41
49841;BME280;35738;49.890;5.930;2024-01-15T02:14:18;94635.84;;;-7.96;79.70
49841;BME280;35738;49.890;5.930;2024-01-15T02:16:45;94626.13;;;-7.94;80.12
49841;BME280;35738;49.890;5.930;2024-01-15T02:19:15;94607.09;;;-7.93;80.05
49841;BME280;35738;49.890;5.930;2024-01-15T02:21:43;94629.03;;;-7.90;79.67
49841;BME280;35738;49.890;5.930;2024-01-15T02:24:10;94633.75;;;-7.87;79.99
49841;BME280;35738;49.890;5.930;2024-01-15T02:26:37;94642.84;;;-7.84;79.84
49841;BME280;35738;49.890;5.930;2024-01-15T02:29:08;94625.44;;;-7.82;79.93
49841;BME280;35738;49.890;5.930;2024-01-15T02:31:38;94624.41;;;-7.81;79.92
49841;BME280;35738;49.890;5.930;2024-01-15T02:34:05;94635.28;;;-7.79;80.22
49841;BME280;35738;49.890;5.930;2024-01-15T02:36:32;94636.84;;;-7.78;80.14
49841;BME280;35738;49.890;5.930;2024-01-15T02:38:58;94632.50;;;-7.78;80.06
49841;BME280;35738;49.890;5.930;2024-01-15T02:41:25;94633.28;;;-7.77;80.00
49841;BME280;35738;49.890;5.930;2024-01-15T02:43:51;94620.41;;;-7.77;80.36
49841;BME280;35738;49.890;5.930;2024-01-15T02:46:18;94628.72;;;-7.75;80.24
49841;BME280;35738;49.890;5.930;2024-01-15T02:48:44;94624.13;;;-7.73;80.28
49841;BME280;35738;49.890;5.930;2024-01-15T02:51:11;94627.69;;;-7.74;80.20
49841;BME280;35738;49.890;5.930;2024-01-15T02:53:38;94642.72;;;-7.71;79.75
49841;BME280;35738;49.890;5.930;2024-01-15T02:56:07;94628.84;;;-7.70;80.02
49841;BME280;35738;49.890;5.930;2024-01-15T02:58:33;94625.25;;;-7.69;79.91
49841;BME280;35738;49.890;5.930;2024-01-15T03:01:00;94637.91;;;-7.68;80.21
49841;BME280;35738;49.890;5.930;2024-01-15T03:03:27;94629.19;;;-7.67;79.80
49841;BME280;35738;49.890;5.930;2024-01-15T03:05:54;94626.41;;;-7.65;80.58
49841;BME280;35738;49.890;5.930;2024-01-15T03:08:21;94628.00;;;-7.64;79.87
49841;BME280;35738;49.890;5.930;2024-01-15T03:10:49;94621.84;;;-7.63;79.94
49841;BME280;35738;49.890;5.930;2024-01-15T03:13:15;94617.28;;;-7.61;79.78
49841;BME280;35738;49.890;5.930;2024-01-15T03:15:43;94618.84;;;-7.60;80.32
49841;BME280;35738;49.890;5.930;2024-01-15T03:18:09;94629.16;;;-7.60;80.31
49841;BME280;35738;49.890;5.930;2024-01-15T03:20:36;94635.88;;;-7.59;79.96
49841;BME280;35738;49.890;5.930;2024-01-15T03:23:03;94628.72;;;-7.57;80.51
49841;BME280;35738;49.890;5.930;2024-01-15T03:25:30;94627.13;;;-7.58;79.98
49841;BME280;35738;49.890;5.930;2024-01-15T03:27:56;94600.97;;;-7.55;80.30
49841;BME280;35738;49.890;5.930;2024-01-15T03:30:23;94632.28;;;-7.58;80.90
49841;BME280;35738;49.890;5.930;2024-01-15T03:32:49;94619.97;;;-7.56;79.99
49841;BME280;35738;49.890;5.930;2024-01-15T03:35:16;94628.50;;;-7.55;80.33
49841;BME280;35738;49.890;5.930;2024-01-15T03:37:43;94631.84;;;-7.55;80.25
49841;BME280;35738;49.890;5.930;2024-01-15T03:40:10;94628.28;;;-7.54;79.79
49841;BME280;35738;49.890;5.930;2024-01-15T03:42:37;94614.41;;;-7.53;79.99
49841;BME280;35738;49.890;5.930;2024-01-15T03:45:04;94614.41;;;-7.53;79.63
49841;BME280;35738;49.890;5.930;2024-01-15T03:47:30;94598.94;;;-7.53;80.11
49841;BME280;35738;49.890;5.930;2024-01-15T03:49:57;94606.47;;;-7.51;80.25
49841;BME280;35738;49.890;5.930;2024-01-15T03:52:23;94596.94;;;-7.51;80.58
49841;BME280;35738;49.890;5.930;2024-01-15T03:54:49;94596.94;;;-7.51;80.07
49841;BME280;35738;49.890;5.930;2024-01-15T03:57:16;94599.53;;;-7.51;80.47
49841;BME280;35738;49.890;5.930;2024-01-15T03:59:43;94589.22;;;-7.51;80.38
49841;BME280;35738;49.890;5.930;2024-01-15T04:02:10;94593.59;;;-7.51;80.23
49841;BME280;35738;49.890;5.930;2024-01-15T04:04:36;94589.22;;;-7.51;79.86
49841;BME280;35738;49.890;5.930;2024-01-15T04:07:06;94593.38;;;-7.50;79.81
49841;BME280;35738;49.890;5.930;2024-01-15T04:09:33;94595.38;;;-7.52;80.31
49841;BME280;35738;49.890;5.930;2024-01-15T04:12:00;94582.72;;;-7.53;79.89
49841;BME280;35738;49.890;5.930;2024-01-15T04:14:26;94580.16;;;-7.53;80.60
49841;BME280;35738;49.890;5.930;2024-01-15T04:16:52;94581.16;;;-7.54;79.88
49841;BME280;35738;49.890;5.930;2024-01-15T04:19:19;94579.34;;;-7.54;80.53
49841;BME280;35738;49.890;5.930;2024-01-15T04:21:46;94578.00;;;-7.57;79.87
49841;BME280;35738;49.890;5.930;2024-01-15T04:24:13;94570.28;;;-7.57;79.82
49841;BME280;35738;49.890;5.930;2024-01-15T04:26:40;94567.72;;;-7.57;79.39
49841;BME280;35738;49.890;5.930;2024-01-15T04:29:06;94567.34;;;-7.60;80.49
49841;BME280;35738;49.890;5.930;2024-01-15T04:31:32;94564.22;;;-7.62;79.54
49841;BME280;35738;49.890;5.930;2024-01-15T04:33:59;94561.06;;;-7.64;79.93
49841;BME280;35738;49.890;5.930;2024-01-15T04:36:26;94555.94;;;-7.64;79.86
49841;BME280;35738;49.890;5.930;2024-01-15T04:38:55;94554.34;;;-7.65;79.71
49841;BME280;35738;49.890;5.930;2024-01-15T04:41:22;94555.34;;;-7.66;79.56
49841;BME280;35738;49.890;5.930;2024-01-15T04:43:49;94546.81;;;-7.67;79.58
49841;BME280;35738;49.890;5.930;2024-01-15T04:46:15;94552.34;;;-7.63;79.87
49841;BME280;35738;49.890;5.930;2024-01-15T04:48:42;94547.22;;;-7.63;79.60
49841;BME280;35738;49.890;5.930;2024-01-15T04:51:09;94539.03;;;-7.60;79.95
49841;BME280;35738;49.890;5.930;2024-01-15T04:53:35;94542.41;;;-7.60;80.32
49841;BME280;35738;49.890;5.930;2024-01-15T04:56:02;94548.91;;;-7.57;79.96
49841;BME280;35738;49.890;5.930;2024-01-15T04:58:29;94541.63;;;-7.60;79.59
49841;BME280;35738;49.890;5.930;2024-01-15T05:00:55;94531.31;;;-7.60;79.89
49841;BME280;35738;49.890;5.930;2024-01-15T05:03:22;94544.19;;;-7.60;80.19
49841;BME280;35738;49.890;5.930;2024-01-15T05:05:49;94536.47;;;-7.60;79.78
49841;BME280;35738;49.890;5.930;2024-01-15T05:08:16;94534.47;;;-7.58;79.80
49841;BME280;35738;49.890;5.930;2024-01-15T05:10:43;94532.91;;;-7.59;80.17
49841;BME280;35738;49.890;5.930;2024-01-15T05:13:09;94532.91;;;-7.59;80.42
49841;BME280;35738;49.890;5.930;2024-01-15T05:15:36;94544.75;;;-7.58;79.77
49841;BME280;35738;49.890;5.930;2024-01-15T05:18:03;94527.75;;;-7.59;79.91
49841;BME280;35738;49.890;5.930;2024-01-15T05:20:30;94530.66;;;-7.55;80.41
49841;BME280;35738;49.890;5.930;2024-01-15T05:22:56;94528.88;;;-7.55;80.52
49841;BME280;35738;49.890;5.930;2024-01-15T05:25:23;94533.59;;;-7.52;79.75
49841;BME280;35738;49.890;5.930;2024-01-15T05:27:49;94538.72;;;-7.52;80.19
49841;BME280;35738;49.890;5.930;2024-01-15T05:30:16;94534.16;;;-7.50;79.64
49841;BME280;35738;49.890;5.930;2024-01-15T05:32:43;94529.00;;;-7.50;80.05
49841;BME280;35738;49.890;5.930;2024-01-15T05:35:10;94539.88;;;-7.48;79.97
49841;BME280;35738;49.890;5.930;2024-01-15T05:37:36;94528.00;;;-7.49;80.05
49841;BME280;35738;49.890;5.930;2024-01-15T05:40:03;94528.78;;;-7.48;79.79
49841;BME280;35738;49.890;5.930;2024-01-15T05:42:31;94514.91;;;-7.47;80.72
49841;BME280;35738;49.890;5.930;2024-01-15T05:44:58;94509.75;;;-7.47;80.26
49841;BME280;35738;49.890;5.930;2024-01-15T05:47:26;94505.38;;;-7.47;80.04
49841;BME280;35738;49.890;5.930;2024-01-15T05:49:53;94529.16;;;-7.45;79.70
49841;BME280;35738;49.890;5.930;2024-01-15T05:52:20;94525.56;;;-7.44;80.09
49841;BME280;35738;49.890;5.930;2024-01-15T05:54:48;94504.97;;;-7.44;80.00
49841;BME280;35738;49.890;5.930;2024-01-15T05:57:14;94515.84;;;-7.42;80.10
49841;BME280;35738;49.890;5.930;2024-01-15T05:59:41;94510.69;;;-7.42;80.33
49841;BME280;35738;49.890;5.930;2024-01-15T06:02:07;94508.91;;;-7.41;79.93
49841;BME280;35738;49.890;5.930;2024-01-15T06:04:34;94506.09;;;-7.40;79.61
49841;BME280;35738;49.890;5.930;2024-01-15T06:07:00;94518.75;;;-7.38;79.84
49841;BME280;35738;49.890;5.930;2024-01-15T06:09:27;94514.38;;;-7.38;80.94
49841;BME280;35738;49.890;5.930;2024-01-15T06:11:55;94509.25;;;-7.38;80.90
49841;BME280;35738;49.890;5.930;2024-01-15T06:14:21;94498.16;;;-7.38;80.06
49841;BME280;35738;49.890;5.930;2024-01-15T06:16:48;94502.06;;;-7.36;80.06
49841;BME280;35738;49.890;5.930;2024-01-15T06:19:15;94501.06;;;-7.35;80.15
49841;BME280;35738;49.890;5.930;2024-01-15T06:21:42;94495.69;;;-7.33;80.64
49841;BME280;35738;49.890;5.930;2024-01-15T06:24:08;94498.84;;;-7.31;80.01
49841;BME280;35738;49.890;5.930;2024-01-15T06:26:36;94491.66;;;-7.29;80.65
49841;BME280;35738;49.890;5.930;2024-01-15T06:29:03;94499.78;;;-7.25;80.39
49841;BME280;35738;49.890;5.930;2024-01-15T06:31:29;94503.34;;;-7.27;80.79
49841;BME280;35738;49.890;5.930;2024-01-15T06:33:56;94499.53;;;-7.24;80.28
49841;BME280;35738;49.890;5.930;2024-01-15T06:36:23;94488.47;;;-7.24;79.99
49841;BME280;35738;49.890;5.930;2024-01-15T06:38:50;94486.66;;;-7.24;80.81
49841;BME280;35738;49.890;5.930;2024-01-15T06:41:16;94479.72;;;-7.23;79.94
49841;BME280;35738;49.890;5.930;2024-01-15T06:43:43;94481.28;;;-7.22;80.38
49841;BME280;35738;49.890;5.930;2024-01-15T06:46:09;94481.28;;;-7.22;80.87
49841;BME280;35738;49.890;5.930;2024-01-15T06:48:36;94487.69;;;-7.25;80.48
49841;BME280;35738;49.890;5.930;2024-01-15T06:51:03;94477.38;;;-7.25;80.45
49841;BME280;35738;49.890;5.930;2024-01-15T06:53:29;94495.19;;;-7.23;79.91
49841;BME280;35738;49.890;5.930;2024-01-15T06:55:55;94472.78;;;-7.23;80.55
49841;BME280;35738;49.890;5.930;2024-01-15T06:58:22;94480.50;;;-7.23;80.79
49841;BME280;35738;49.890;5.930;2024-01-15T07:00:49;94477.50;;;-7.20;80.59
49841;BME280;35738;49.890;5.930;2024-01-15T07:03:15;94470.78;;;-7.21;81.07
49841;BME280;35738;49.890;5.930;2024-01-15T07:05:42;94479.28;;;-7.20;80.56
49841;BME280;35738;49.890;5.930;2024-01-15T07:08:08;94479.28;;;-7.20;80.15
49841;BME280;35738;49.890;5.930;2024-01-15T07:10:35;94474.13;;;-7.20;80.56
49841;BME280;35738;49.890;5.930;2024-01-15T07:13:03;94475.91;;;-7.21;80.13
49841;BME280;35738;49.890;5.930;2024-01-15T07:15:31;94477.50;;;-7.20;80.48
49841;BME280;35738;49.890;5.930;2024-01-15T07:17:58;94484.44;;;-7.20;80.70
49841;BME280;35738;49.890;5.930;2024-01-15T07:20:24;94490.38;;;-7.20;81.11
49841;BME280;35738;49.890;5.930;2024-01-15T07:22:51;94495.75;;;-7.21;80.75
49841;BME280;35738;49.890;5.930;2024-01-15T07:25:17;94488.00;;;-7.21;80.88
49841;BME280;35738;49.890;5.930;2024-01-15T07:27:44;94493.16;;;-7.21;80.52
49841;BME280;35738;49.890;5.930;2024-01-15T07:30:12;94499.88;;;-7.20;80.49
49841;BME280;35738;49.890;5.930;2024-01-15T07:32:38;94495.97;;;-7.23;80.51
49841;BME280;35738;49.890;5.930;2024-01-15T07:35:06;94498.75;;;-7.24;80.14
49841;BME280;35738;49.890;5.930;2024-01-15T07:37:32;94485.88;;;-7.24;80.14
49841;BME280;35738;49.890;5.930;2024-01-15T07:39:59;94494.63;;;-7.25;81.00
49841;BME280;35738;49.890;5.930;2024-01-15T07:42:27;94483.75;;;-7.28;80.60
49841;BME280;35738;49.890;5.930;2024-01-15T07:44:53;94500.00;;;-7.27;80.93
49841;BME280;35738;49.890;5.930;2024-01-15T07:47:20;94493.25;;;-7.28;80.05
49841;BME280;35738;49.890;5.930;2024-01-15T07:49:46;94506.34;;;-7.30;80.17
49841;BME280;35738;49.890;5.930;2024-01-15T07:52:13;94513.06;;;-7.29;80.52
49841;BME280;35738;49.890;5.930;2024-01-15T07:54:40;94501.19;;;-7.30;80.21
49841;BME280;35738;49.890;5.930;2024-01-15T07:57:06;94513.84;;;-7.28;80.59
49841;BME280;35738;49.890;5.930;2024-01-15T07:59:34;94500.41;;;-7.30;80.64
49841;BME280;35738;49.890;5.930;2024-01-15T08:02:01;94504.34;;;-7.28;80.37
49841;BME280;35738;49.890;5.930;2024-01-15T08:04:28;94503.53;;;-7.28;80.91
49841;BME280;35738;49.890;5.930;2024-01-15T08:06:55;94488.91;;;-7.28;80.36
49841;BME280;35738;49.890;5.930;2024-01-15T08:09:23;94495.63;;;-7.27;80.86
49841;BME280;35738;49.890;5.930;2024-01-15T08:11:50;94502.34;;;-7.25;80.95
49841;BME280;35738;49.890;5.930;2024-01-15T08:14:17;94502.34;;;-7.25;80.21
49841;BME280;35738;49.890;5.930;2024-01-15T08:16:44;94493.63;;;-7.24;80.66
49841;BME280;35738;49.890;5.930;2024-01-15T08:19:10;94494.41;;;-7.24;80.01
49841;BME280;35738;49.890;5.930;2024-01-15T08:21:37;94492.38;;;-7.22;80.68
49841;BME280;35738;49.890;5.930;2024-01-15T08:24:04;94495.19;;;-7.23;80.02
49841;BME280;35738;49.890;5.930;2024-01-15T08:26:32;94490.03;;;-7.23;80.15
49841;BME280;35738;49.890;5.930;2024-01-15T08:28:59;94491.38;;;-7.21;80.37
49841;BME280;35738;49.890;5.930;2024-01-15T08:31:25;94487.56;;;-7.18;80.46
49841;BME280;35738;49.890;5.930;2024-01-15T08:33:53;94502.00;;;-7.17;80.00
49841;BME280;35738;49.890;5.930;2024-01-15T08:36:21;94480.41;;;-7.16;80.68
49841;BME280;35738;49.890;5.930;2024-01-15T08:38:47;94480.41;;;-7.16;80.18
49841;BME280;35738;49.890;5.930;2024-01-15T08:41:14;94492.06;;;-7.14;80.09
49841;BME280;35738;49.890;5.930;2024-01-15T08:43:40;94491.38;;;-7.09;79.90
49841;BME280;35738;49.890;5.930;2024-01-15T08:46:07;94492.97;;;-7.08;79.71
49841;BME280;35738;49.890;5.930;2024-01-15T08:48:34;94500.47;;;-7.07;80.12
49841;BME280;35738;49.890;5.930;2024-01-15T08:51:01;94487.81;;;-7.08;80.70
49841;BME280;35738;49.890;5.930;2024-01-15T08:53:27;94510.56;;;-7.05;80.69
49841;BME280;35738;49.890;5.930;2024-01-15T08:55:54;94512.91;;;-7.04;79.70
49841;BME280;35738;49.890;5.930;2024-01-15T08:58:20;94514.25;;;-7.01;81.01
49841;BME280;35738;49.890;5.930;2024-01-15T09:00:47;94507.88;;;-6.99;80.32
49841;BME280;35738;49.890;5.930;2024-01-15T09:03:13;94516.41;;;-6.98;80.62
49841;BME280;35738;49.890;5.930;2024-01-15T09:05:40;94511.81;;;-6.96;79.86
49841;BME280;35738;49.890;5.930;2024-01-15T09:08:07;94511.34;;;-6.93;80.38
49841;BME280;35738;49.890;5.930;2024-01-15T09:10:34;94508.56;;;-6.91;80.35
49841;BME280;35738;49.890;5.930;2024-01-15T09:13:00;94505.00;;;-6.90;80.34
49841;BME280;35738;49.890;5.930;2024-01-15T09:15:27;94513.28;;;-6.88;80.32
49841;BME280;35738;49.890;5.930;2024-01-15T09:17:54;94510.03;;;-6.84;80.17
49841;BME280;35738;49.890;5.930;2024-01-15T09:20:21;94517.78;;;-6.84;80.83
49841;BME280;35738;49.890;5.930;2024-01-15T09:22:47;94514.19;;;-6.83;81.22
49841;BME280;35738;49.890;5.930;2024-01-15T09:25:14;94521.47;;;-6.80;79.88
49841;BME280;35738;49.890;5.930;2024-01-15T09:27:40;94505.00;;;-6.79;80.94
49841;BME280;35738;49.890;5.930;2024-01-15T09:30:07;94522.03;;;-6.78;79.96
49841;BME280;35738;49.890;5.930;2024-01-15T09:32:34;94522.59;;;-6.76;80.38
49841;BME280;35738;49.890;5.930;2024-01-15T09:35:01;94527.28;;;-6.73;80.37
49841;BME280;35738;49.890;5.930;2024-01-15T09:37:28;94533.59;;;-6.69;80.78
49841;BME280;35738;49.890;5.930;2024-01-15T09:40:13;94530.00;;;-6.68;80.46
49841;BME280;35738;49.890;5.930;2024-01-15T09:42:42;94536.72;;;-6.67;80.82
49841;BME280;35738;49.890;5.930;2024-01-15T09:45:09;94539.09;;;-6.65;80.32
49841;BME280;35738;49.890;5.930;2024-01-15T09:47:37;94536.28;;;-6.63;80.72
49841;BME280;35738;49.890;5.930;2024-01-15T09:50:09;94534.25;;;-6.61;80.49
49841;BME280;35738;49.890;5.930;2024-01-15T09:52:36;94524.50;;;-6.59;79.92
49841;BME280;35738;49.890;5.930;2024-01-15T09:55:03;94531.56;;;-6.55;81.11
49841;BME280;35738;49.890;5.930;2024-01-15T09:57:32;94525.41;;;-6.54;80.45
49841;BME280;35738;49.890;5.930;2024-01-15T09:59:59;94528.13;;;-6.49;80.99
49841;BME280;35738;49.890;5.930;2024-01-15T10:02:30;94536.97;;;-6.45;81.13
49841;BME280;35738;49.890;5.930;2024-01-15T10:04:57;94522.84;;;-6.42;81.09
49841;BME280;35738;49.890;5.930;2024-01-15T10:07:25;94533.81;;;-6.35;80.07
49841;BME280;35738;49.890;5.930;2024-01-15T10:09:52;94536.53;;;-6.30;81.02
49841;BME280;35738;49.890;5.930;2024-01-15T10:12:21;94537.75;;;-6.32;80.62
49841;BME280;35738;49.890;5.930;2024-01-15T10:14:48;94539.97;;;-6.36;81.00
49841;BME280;35738;49.890;5.930;2024-01-15T10:17:15;94522.72;;;-6.36;81.06
49841;BME280;35738;49.890;5.930;2024-01-15T10:19:46;94541.56;;;-6.35;81.23
49841;BME280;35738;49.890;5.930;2024-01-15T10:22:16;94542.56;;;-6.36;80.40
49841;BME280;35738;49.890;5.930;2024-01-15T10:24:45;94541.00;;;-6.37;80.53
49841;BME280;35738;49.890;5.930;2024-01-15T10:27:14;94532.25;;;-6.36;80.03
49841;BME280;35738;49.890;5.930;2024-01-15T10:29:42;94539.97;;;-6.36;80.20
49841;BME280;35738;49.890;5.930;2024-01-15T10:32:09;94528.47;;;-6.33;80.21
49841;BME280;35738;49.890;5.930;2024-01-15T10:34:40;94530.81;;;-6.32;80.72
49841;BME280;35738;49.890;5.930;2024-01-15T10:37:09;94527.22;;;-6.31;81.00
49841;BME280;35738;49.890;5.930;2024-01-15T10:39:36;94536.97;;;-6.33;80.22
49841;BME280;35738;49.890;5.930;2024-01-15T10:42:03;94529.81;;;-6.31;80.98
49841;BME280;35738;49.890;5.930;2024-01-15T10:44:30;94524.19;;;-6.28;81.65
49841;BME280;35738;49.890;5.930;2024-01-15T10:46:57;94538.75;;;-6.22;80.82
49841;BME280;35738;49.890;5.930;2024-01-15T10:49:24;94543.59;;;-6.14;81.45
49841;BME280;35738;49.890;5.930;2024-01-15T10:51:58;94530.22;;;-6.11;81.49
49841;BME280;35738;49.890;5.930;2024-01-15T10:54:27;94534.94;;;-6.08;80.95
49841;BME280;35738;49.890;5.930;2024-01-15T10:56:55;94537.06;;;-6.05;81.70
49841;BME280;35738;49.890;5.930;2024-01-15T10:59:23;94520.56;;;-6.03;80.73
49841;BME280;35738;49.890;5.930;2024-01-15T11:01:52;94533.22;;;-6.02;81.61
49841;BME280;35738;49.890;5.930;2024-01-15T11:04:21;94528.84;;;-6.01;81.11
49841;BME280;35738;49.890;5.930;2024-01-15T11:06:52;94547.06;;;-5.96;80.97
49841;BME280;35738;49.890;5.930;2024-01-15T11:09:23;94551.41;;;-5.85;81.01
49841;BME280;35738;49.890;5.930;2024-01-15T11:12:06;94537.25;;;-5.83;80.24
49841;BME280;35738;49.890;5.930;2024-01-15T11:14:34;94539.38;;;-5.80;80.22
49841;BME280;35738;49.890;5.930;2024-01-15T11:17:01;94537.47;;;-5.72;81.38
49841;BME280;35738;49.890;5.930;2024-01-15T11:19:46;94532.28;;;-5.72;80.99
49841;BME280;35738;49.890;5.930;2024-01-15T11:25:03;94540.00;;;-5.61;81.13
49841;BME280;35738;49.890;5.930;2024-01-15T11:27:47;94533.94;;;-5.55;80.64
49841;BME280;35738;49.890;5.930;2024-01-15T11:30:18;94530.88;;;-5.52;80.81
49841;BME280;35738;49.890;5.930;2024-01-15T11:32:46;94546.75;;;-5.60;80.65
49841;BME280;35738;49.890;5.930;2024-01-15T11:35:13;94541.59;;;-5.60;80.18
49841;BME280;35738;49.890;5.930;2024-01-15T11:40:36;94525.47;;;-5.50;81.29
49841;BME280;35738;49.890;5.930;2024-01-15T11:43:05;94547.13;;;-5.39;80.22
49841;BME280;35738;49.890;5.930;2024-01-15T11:45:33;94542.13;;;-5.29;80.17
49841;BME280;35738;49.890;5.930;2024-01-15T11:48:08;94539.38;;;-5.11;80.58
49841;BME280;35738;49.890;5.930;2024-01-15T11:50:40;94539.63;;;-5.24;79.70
49841;BME280;35738;49.890;5.930;2024-01-15T11:53:16;94540.41;;;-5.40;79.53
49841;BME280;35738;49.890;5.930;2024-01-15T11:55:45;94545.56;;;-5.40;79.15
49841;BME280;35738;49.890;5.930;2024-01-15T11:58:12;94543.66;;;-5.45;79.44
49841;BME280;35738;49.890;5.930;2024-01-15T12:00:48;94547.03;;;-5.45;79.30
49841;BME280;35738;49.890;5.930;2024-01-15T12:03:16;94548.81;;;-5.45;79.12
49841;BME280;35738;49.890;5.930;2024-01-15T12:05:42;94543.88;;;-5.47;78.90
49841;BME280;35738;49.890;5.930;2024-01-15T12:08:09;94540.06;;;-5.44;78.97
49841;BME280;35738;49.890;5.930;2024-01-15T12:10:40;94540.41;;;-5.40;78.65
49841;BME280;35738;49.890;5.930;2024-01-15T12:13:12;94534.09;;;-5.45;78.68
49841;BME280;35738;49.890;5.930;2024-01-15T12:15:41;94541.75;;;-5.50;78.94
49841;BME280;35738;49.890;5.930;2024-01-15T12:18:11;94537.06;;;-5.53;79.07
49841;BME280;35738;49.890;5.930;2024-01-15T12:20:39;94539.09;;;-5.55;79.46
49841;BME280;35738;49.890;5.930;2024-01-15T12:23:06;94543.81;;;-5.52;78.92
49841;BME280;35738;49.890;5.930;2024-01-15T12:25:35;94540.53;;;-5.47;79.46
49841;BME280;35738;49.890;5.930;2024-01-15T12:28:02;94534.81;;;-5.61;79.15
49841;BME280;35738;49.890;5.930;2024-01-15T12:30:30;94533.53;;;-5.75;79.22
49841;BME280;35738;49.890;5.930;2024-01-15T12:33:04;94527.38;;;-5.74;78.69
49841;BME280;35738;49.890;5.930;2024-01-15T12:35:31;94531.50;;;-5.73;79.00
49841;BME280;35738;49.890;5.930;2024-01-15T12:38:00;94532.88;;;-5.82;78.40
49841;BME280;35738;49.890;5.930;2024-01-15T12:40:28;94532.88;;;-5.82;78.20
49841;BME280;35738;49.890;5.930;2024-01-15T12:42:55;94534.78;;;-5.89;78.59
49841;BME280;35738;49.890;5.930;2024-01-15T12:45:21;94534.25;;;-5.91;78.29
49841;BME280;35738;49.890;5.930;2024-01-15T12:47:48;94541.44;;;-5.93;79.24
49841;BME280;35738;49.890;5.930;2024-01-15T12:50:16;94538.63;;;-5.92;78.46
49841;BME280;35738;49.890;5.930;2024-01-15T12:52:46;94544.56;;;-5.91;78.89
49841;BME280;35738;49.890;5.930;2024-01-15T12:55:13;94542.53;;;-5.89;77.63
49841;BME280;35738;49.890;5.930;2024-01-15T12:57:40;94546.31;;;-5.80;78.97
49841;BME280;35738;49.890;5.930;2024-01-15T13:00:07;94547.91;;;-5.79;78.54
49841;BME280;35738;49.890;5.930;2024-01-15T13:02:42;94542.72;;;-5.79;78.02
49841;BME280;35738;49.890;5.930;2024-01-15T13:05:10;94559.69;;;-5.83;77.58
49841;BME280;35738;49.890;5.930;2024-01-15T13:07:41;94559.81;;;-5.78;78.35